Time;durP1;ratioP1;P1;durP2;ratioP2;P2;SDS_P1;SDS_P2;PMS_P1;PMS_P2;Temp;Humidity;BMP_temperature;BMP_pressure;BME280_temperature;BME280_humidity;BME280_pressure;Samples;Min_cycle;Max_cycle;Signal;HPM_P1;HPM_P2
2022/08/30 00:03:16;;;;;;;5.10;2.70;;;20.10;99.90;;;;;;5100334;28;20465;-80
2022/08/30 00:05:44;;;;;;;3.97;2.70;;;20.10;99.90;;;;;;5100422;28;20485;-80
2022/08/30 00:08:11;;;;;;;6.90;3.30;;;20.10;99.90;;;;;;5101110;28;20476;-79
2022/08/30 00:10:39;;;;;;;4.73;2.80;;;20.00;99.90;;;;;;5100106;28;20493;-79
2022/08/30 00:13:06;;;;;;;6.60;3.07;;;20.10;99.90;;;;;;5099279;28;20486;-81
2022/08/30 00:15:35;;;;;;;8.43;3.63;;;20.10;99.90;;;;;;5100755;28;20473;-79
2022/08/30 00:18:02;;;;;;;6.67;2.50;;;20.00;99.90;;;;;;5099780;28;20556;-80
2022/08/30 00:20:31;;;;;;;4.90;3.37;;;20.10;99.90;;;;;;5100533;28;20997;-78
2022/08/30 00:22:58;;;;;;;7.80;3.63;;;20.10;99.90;;;;;;5099443;28;20666;-79
2022/08/30 00:25:26;;;;;;;5.37;3.27;;;20.00;99.90;;;;;;5099285;28;20481;-80
2022/08/30 00:27:54;;;;;;;6.70;3.03;;;20.00;99.90;;;;;;5098934;28;20454;-78
2022/08/30 00:30:21;;;;;;;4.60;3.17;;;20.00;99.90;;;;;;5099290;28;20454;-80
2022/08/30 00:32:49;;;;;;;7.10;2.50;;;19.90;99.90;;;;;;5099560;28;20568;-79
2022/08/30 00:35:19;;;;;;;5.73;3.17;;;19.90;99.90;;;;;;5099634;28;20906;-78
2022/08/30 00:37:46;;;;;;;5.50;2.63;;;19.90;99.90;;;;;;5100469;28;20533;-79
2022/08/30 00:40:15;;;;;;;4.90;2.87;;;19.90;99.90;;;;;;5099208;28;20486;-81
2022/08/30 00:42:43;;;;;;;5.30;2.50;;;19.90;99.90;;;;;;5100633;28;20434;-80
2022/08/30 00:45:14;;;;;;;4.80;2.90;;;19.90;99.90;;;;;;5099409;28;20529;-79
2022/08/30 00:47:41;;;;;;;6.13;2.90;;;19.90;99.90;;;;;;5099262;28;20454;-78
2022/08/30 00:50:12;;;;;;;5.63;3.00;;;19.80;99.90;;;;;;5100648;28;20456;-78
2022/08/30 00:52:43;;;;;;;7.37;3.40;;;19.80;99.90;;;;;;5100467;28;20548;-80
2022/08/30 00:55:12;;;;;;;4.20;2.80;;;19.90;99.90;;;;;;5098986;28;20478;-79
2022/08/30 00:57:40;;;;;;;5.97;3.60;;;19.80;99.90;;;;;;5098670;28;20940;-79
2022/08/30 01:00:08;;;;;;;6.00;2.90;;;19.80;99.90;;;;;;5099588;28;20534;-78
2022/08/30 01:02:35;;;;;;;5.30;2.97;;;19.80;99.90;;;;;;5098852;28;20458;-79
2022/08/30 01:05:05;;;;;;;6.30;2.80;;;19.80;99.90;;;;;;5099062;28;20533;-78
2022/08/30 01:07:33;;;;;;;4.80;3.07;;;19.80;99.90;;;;;;5098800;28;21366;-78
2022/08/30 01:10:01;;;;;;;6.47;2.80;;;19.80;99.90;;;;;;5098483;28;20469;-79
2022/08/30 01:12:28;;;;;;;4.13;2.73;;;19.80;99.90;;;;;;5100057;28;20907;-79
2022/08/30 01:14:55;;;;;;;5.37;2.87;;;19.80;99.90;;;;;;5099301;28;20506;-78
2022/08/30 01:17:23;;;;;;;8.83;3.20;;;19.70;99.90;;;;;;5097057;28;20537;-81
2022/08/30 01:19:55;;;;;;;4.73;2.43;;;19.80;99.90;;;;;;5099333;28;20532;-79
2022/08/30 01:22:29;;;;;;;6.23;2.57;;;19.70;99.90;;;;;;5099185;28;20532;-79
2022/08/30 01:25:00;;;;;;;5.67;3.00;;;19.70;99.90;;;;;;5096200;28;20482;-81
2022/08/30 01:27:30;;;;;;;6.93;2.90;;;19.70;99.90;;;;;;5099131;28;20988;-81
2022/08/30 01:29:58;;;;;;;5.60;2.80;;;19.70;99.90;;;;;;5099052;28;20478;-80
2022/08/30 01:32:28;;;;;;;3.70;2.20;;;19.70;99.90;;;;;;5099410;28;21004;-80
2022/08/30 01:34:55;;;;;;;4.10;2.60;;;19.60;99.90;;;;;;5096705;28;20485;-79
2022/08/30 01:37:26;;;;;;;3.37;2.17;;;19.60;99.90;;;;;;5099888;28;21020;-79
2022/08/30 01:39:53;;;;;;;4.60;2.10;;;19.60;99.90;;;;;;5098148;28;20477;-78
2022/08/30 01:42:23;;;;;;;6.40;2.43;;;19.60;99.90;;;;;;5098968;28;20481;-77
2022/08/30 01:44:50;;;;;;;3.00;2.30;;;19.60;99.90;;;;;;5098579;28;20568;-78
2022/08/30 01:47:17;;;;;;;3.70;2.27;;;19.60;99.90;;;;;;5100287;28;20966;-78
2022/08/30 01:49:45;;;;;;;4.43;2.30;;;19.60;99.90;;;;;;5099570;28;20588;-80
2022/08/30 01:52:13;;;;;;;5.80;2.93;;;19.60;99.90;;;;;;5099453;28;20485;-80
2022/08/30 01:54:43;;;;;;;5.80;2.60;;;19.60;99.90;;;;;;5098139;28;20517;-80
2022/08/30 01:57:12;;;;;;;5.13;2.47;;;19.50;99.90;;;;;;5079255;28;20450;-78
2022/08/30 01:59:46;;;;;;;3.73;2.73;;;19.60;99.90;;;;;;5089375;28;20537;-78
2022/08/30 02:02:14;;;;;;;3.17;2.00;;;19.50;99.90;;;;;;5098123;28;20476;-79
2022/08/30 02:04:41;;;;;;;3.83;2.63;;;19.50;99.90;;;;;;5098282;28;20455;-78
2022/08/30 02:07:08;;;;;;;4.80;2.50;;;19.50;99.90;;;;;;5100464;28;20525;-80
2022/08/30 02:09:36;;;;;;;4.53;2.33;;;19.50;99.90;;;;;;5096681;28;20565;-80
2022/08/30 02:12:06;;;;;;;3.50;2.20;;;19.50;99.90;;;;;;5098052;28;20450;-78
2022/08/30 02:14:33;;;;;;;7.47;2.40;;;19.50;99.90;;;;;;5097917;28;20486;-78
2022/08/30 02:17:01;;;;;;;5.30;2.50;;;19.50;99.90;;;;;;5099055;28;20531;-79
2022/08/30 02:19:28;;;;;;;4.40;1.97;;;19.50;99.90;;;;;;5101263;28;21018;-81
2022/08/30 02:21:55;;;;;;;3.57;2.13;;;19.50;99.90;;;;;;5099488;28;20529;-78
2022/08/30 02:24:22;;;;;;;5.47;2.07;;;19.50;99.90;;;;;;5098429;28;20456;-79
2022/08/30 02:26:51;;;;;;;4.53;2.47;;;19.40;99.90;;;;;;5100039;28;20525;-80
2022/08/30 02:29:18;;;;;;;3.10;2.20;;;19.40;99.90;;;;;;5097918;28;20485;-79
2022/08/30 02:31:45;;;;;;;4.07;2.40;;;19.40;99.90;;;;;;5099227;28;20477;-79
2022/08/30 02:34:14;;;;;;;3.53;1.93;;;19.40;99.90;;;;;;5096360;28;20561;-79
2022/08/30 02:36:41;;;;;;;6.00;2.90;;;19.30;99.90;;;;;;5101472;28;20545;-80
2022/08/30 02:39:08;;;;;;;5.43;2.33;;;19.30;99.90;;;;;;5101928;28;20529;-80
2022/08/30 02:41:34;;;;;;;4.90;2.03;;;19.30;99.90;;;;;;5101944;28;20478;-80
2022/08/30 02:44:01;;;;;;;5.30;2.13;;;19.20;99.90;;;;;;5101802;28;20466;-79
2022/08/30 02:46:28;;;;;;;3.73;2.40;;;19.20;99.90;;;;;;5102773;28;20480;-78
2022/08/30 02:48:55;;;;;;;5.83;2.70;;;19.10;99.90;;;;;;5101696;28;20564;-79
2022/08/30 02:51:24;;;;;;;3.93;3.50;;;19.10;99.90;;;;;;5101576;28;20446;-79
2022/08/30 02:53:51;;;;;;;5.03;2.40;;;19.10;99.90;;;;;;5100894;28;20484;-78
2022/08/30 02:56:18;;;;;;;3.30;2.20;;;19.10;99.90;;;;;;5102011;28;20489;-79
2022/08/30 02:58:47;;;;;;;5.03;2.43;;;19.00;99.90;;;;;;5101898;28;20470;-80
2022/08/30 03:01:17;;;;;;;3.60;2.30;;;19.00;99.90;;;;;;5102472;28;20830;-79
2022/08/30 03:03:45;;;;;;;4.73;2.90;;;19.00;99.90;;;;;;5101781;28;20454;-79
2022/08/30 03:06:12;;;;;;;4.60;2.43;;;18.90;99.90;;;;;;5103173;28;20496;-79
2022/08/30 03:08:41;;;;;;;3.40;2.37;;;19.00;99.90;;;;;;5100233;28;20561;-81
2022/08/30 03:11:08;;;;;;;5.70;2.40;;;18.90;99.90;;;;;;5102024;28;20518;-80
2022/08/30 03:13:35;;;;;;;3.27;2.37;;;18.90;99.90;;;;;;5101254;28;20515;-80
2022/08/30 03:16:02;;;;;;;4.47;2.30;;;18.90;99.90;;;;;;5093720;28;21013;-78
2022/08/30 03:18:29;;;;;;;4.40;2.63;;;18.90;99.90;;;;;;5093195;28;20533;-81
2022/08/30 03:20:56;;;;;;;3.63;2.43;;;18.90;99.90;;;;;;5101231;28;20488;-80
2022/08/30 03:23:23;;;;;;;3.50;2.13;;;18.90;99.90;;;;;;5092873;28;20449;-79
2022/08/30 03:25:52;;;;;;;3.83;2.17;;;18.90;99.90;;;;;;5100893;28;20898;-78
2022/08/30 03:28:19;;;;;;;3.10;2.07;;;18.90;99.90;;;;;;5102387;28;20516;-79
2022/08/30 03:30:46;;;;;;;3.27;2.40;;;18.80;99.90;;;;;;5103683;28;20478;-79
2022/08/30 03:33:13;;;;;;;3.00;2.00;;;18.80;99.90;;;;;;5099835;28;20453;-81
2022/08/30 03:35:40;;;;;;;4.93;2.50;;;18.70;99.90;;;;;;5101737;28;20456;-80
2022/08/30 03:38:07;;;;;;;4.90;2.80;;;18.70;99.90;;;;;;5100522;28;20476;-79
2022/08/30 03:40:34;;;;;;;3.13;2.30;;;18.70;99.90;;;;;;5100624;28;20967;-79
2022/08/30 03:43:02;;;;;;;2.97;1.90;;;18.60;99.90;;;;;;5101031;28;20494;-79
2022/08/30 03:45:29;;;;;;;4.40;2.50;;;18.60;99.90;;;;;;5099845;28;20525;-78
2022/08/30 03:47:57;;;;;;;5.50;2.77;;;18.60;99.90;;;;;;5099143;28;20537;-78
2022/08/30 03:50:24;;;;;;;3.67;2.33;;;18.60;99.90;;;;;;5099033;28;20832;-79
2022/08/30 03:52:51;;;;;;;4.17;2.70;;;18.50;99.90;;;;;;5094492;28;20541;-79
2022/08/30 03:55:18;;;;;;;7.13;2.87;;;18.50;99.90;;;;;;5089984;28;20939;-79
2022/08/30 03:57:44;;;;;;;4.33;2.80;;;18.50;99.90;;;;;;5102471;28;21028;-81
2022/08/30 04:00:14;;;;;;;4.07;2.43;;;18.40;99.90;;;;;;5104833;28;20484;-77
2022/08/30 04:02:41;;;;;;;5.70;2.43;;;18.40;99.90;;;;;;5107910;28;20457;-81
2022/08/30 04:05:09;;;;;;;4.27;2.60;;;18.40;99.90;;;;;;5112940;28;20504;-81
2022/08/30 04:07:36;;;;;;;10.60;3.20;;;18.40;99.90;;;;;;5112714;28;20457;-80
2022/08/30 04:10:05;;;;;;;5.07;3.00;;;18.40;99.90;;;;;;5113292;28;20476;-80
2022/08/30 04:12:32;;;;;;;4.27;2.60;;;18.30;99.90;;;;;;5108940;28;20475;-79
2022/08/30 04:14:59;;;;;;;6.40;3.03;;;18.30;99.90;;;;;;5100940;28;20584;-79
2022/08/30 04:17:27;;;;;;;4.57;3.23;;;18.30;99.90;;;;;;5097770;28;20485;-79
2022/08/30 04:19:54;;;;;;;5.20;3.20;;;18.30;99.90;;;;;;5099230;28;20469;-79
2022/08/30 04:22:21;;;;;;;5.40;3.13;;;18.20;99.90;;;;;;5098086;28;20463;-80
2022/08/30 04:24:48;;;;;;;8.00;3.00;;;18.20;99.90;;;;;;5097974;28;20454;-79
2022/08/30 04:27:19;;;;;;;5.47;3.10;;;18.20;99.90;;;;;;5099270;28;20477;-78
2022/08/30 04:29:45;;;;;;;6.90;4.00;;;18.20;99.90;;;;;;5101196;28;20550;-79
2022/08/30 04:32:12;;;;;;;5.77;3.10;;;18.20;99.90;;;;;;5096247;28;20822;-79
2022/08/30 04:34:40;;;;;;;5.80;2.83;;;18.20;99.90;;;;;;5101219;28;20524;-79
2022/08/30 04:37:07;;;;;;;4.43;3.27;;;18.10;99.90;;;;;;5105805;28;20464;-79
2022/08/30 04:39:34;;;;;;;4.53;2.90;;;18.10;99.90;;;;;;5104903;28;20471;-80
2022/08/30 04:42:02;;;;;;;3.40;2.53;;;18.10;99.90;;;;;;5106016;28;20457;-80
2022/08/30 04:44:30;;;;;;;4.37;3.10;;;18.10;99.90;;;;;;5102268;28;20445;-80
2022/08/30 04:46:57;;;;;;;6.10;3.30;;;18.00;99.90;;;;;;5103935;28;20465;-80
2022/08/30 04:49:24;;;;;;;4.80;3.20;;;18.00;99.90;;;;;;5096652;28;20857;-79
2022/08/30 04:51:53;;;;;;;3.37;2.90;;;18.00;99.90;;;;;;5102003;28;20491;-79
2022/08/30 04:54:19;;;;;;;3.33;1.80;;;18.00;99.90;;;;;;5091211;28;20920;-78
2022/08/30 04:56:46;;;;;;;4.83;2.30;;;19.20;99.90;;;;;;5072604;28;20449;-79
2022/08/30 04:59:13;;;;;;;4.40;2.87;;;19.70;99.90;;;;;;5075226;28;20465;-78
2022/08/30 05:01:40;;;;;;;5.83;2.80;;;19.70;99.90;;;;;;5081490;28;20505;-79
2022/08/30 05:04:07;;;;;;;3.13;2.50;;;19.50;99.90;;;;;;5071868;28;20457;-78
2022/08/30 05:06:34;;;;;;;4.87;3.40;;;19.20;99.90;;;;;;5081550;28;20476;-78
2022/08/30 05:09:03;;;;;;;3.87;3.00;;;19.00;99.90;;;;;;5092591;28;20472;-79
2022/08/30 05:11:30;;;;;;;5.03;2.93;;;18.80;99.90;;;;;;5088946;28;20540;-78
2022/08/30 05:13:57;;;;;;;6.80;3.33;;;18.70;99.90;;;;;;5090292;28;20453;-78
2022/08/30 05:16:24;;;;;;;4.03;3.07;;;18.60;99.90;;;;;;5090127;28;20455;-78
2022/08/30 05:18:52;;;;;;;3.67;3.10;;;18.50;99.90;;;;;;5090659;28;20501;-78
2022/08/30 05:21:21;;;;;;;5.53;3.20;;;18.50;99.90;;;;;;5090927;28;20883;-79
2022/08/30 05:23:49;;;;;;;4.90;3.17;;;18.40;99.90;;;;;;5090001;28;21035;-78
2022/08/30 05:26:20;;;;;;;5.83;3.20;;;18.40;99.90;;;;;;5089797;28;20872;-79
2022/08/30 05:28:48;;;;;;;6.23;3.67;;;18.40;99.90;;;;;;5090450;28;20572;-78
2022/08/30 05:31:17;;;;;;;5.77;3.87;;;18.40;99.90;;;;;;5090261;28;20449;-79
2022/08/30 05:33:45;;;;;;;5.07;3.47;;;18.40;99.90;;;;;;5075449;28;20540;-78
2022/08/30 05:36:13;;;;;;;5.70;3.70;;;18.30;99.90;;;;;;5084833;28;20577;-78
2022/08/30 05:38:40;;;;;;;4.87;3.77;;;18.30;99.90;;;;;;5111136;22;20531;-82
2022/08/30 05:41:07;;;;;;;5.97;3.63;;;18.30;99.90;;;;;;5115456;28;20456;-82
2022/08/30 05:43:36;;;;;;;4.90;3.50;;;18.30;99.90;;;;;;5116924;28;20515;-82
2022/08/30 05:46:06;;;;;;;10.00;5.40;;;18.30;99.90;;;;;;5109741;28;20490;-83
2022/08/30 05:48:33;;;;;;;5.20;3.77;;;18.30;99.90;;;;;;5109831;28;20477;-81
2022/08/30 05:51:05;;;;;;;5.77;4.10;;;18.20;99.90;;;;;;5096312;28;20453;-84
2022/08/30 05:53:32;;;;;;;7.73;4.17;;;18.20;99.90;;;;;;5096834;28;20511;-83
2022/08/30 05:56:08;;;;;;;5.80;4.00;;;18.30;99.90;;;;;;5087651;28;20478;-83
2022/08/30 05:58:37;;;;;;;5.50;3.90;;;18.30;99.90;;;;;;5084335;28;20515;-83
2022/08/30 06:01:05;;;;;;;6.60;3.83;;;18.20;99.90;;;;;;5083982;28;20707;-84
2022/08/30 06:03:34;;;;;;;12.70;4.73;;;18.30;99.90;;;;;;5089138;28;20572;-83
2022/08/30 06:06:02;;;;;;;9.10;4.00;;;18.30;99.90;;;;;;5081201;28;20514;-82
2022/08/30 06:08:29;;;;;;;4.83;4.10;;;18.30;99.90;;;;;;5084429;28;20482;-82
2022/08/30 06:10:56;;;;;;;4.70;3.83;;;18.30;99.90;;;;;;5088936;28;20457;-83
2022/08/30 06:13:23;;;;;;;8.47;4.60;;;18.40;99.90;;;;;;5091016;28;20461;-83
2022/08/30 06:15:51;;;;;;;4.90;4.20;;;18.40;99.90;;;;;;5087643;28;20539;-83
2022/08/30 06:18:19;;;;;;;6.20;4.17;;;18.40;99.90;;;;;;5093727;28;20484;-83
2022/08/30 06:20:59;;;;;;;5.90;4.03;;;18.50;99.90;;;;;;5087803;28;20526;-82
2022/08/30 06:23:27;;;;;;;5.43;4.57;;;18.50;99.90;;;;;;5093361;28;21040;-84
2022/08/30 06:25:54;;;;;;;4.23;3.83;;;18.50;99.90;;;;;;5095030;28;20453;-82
2022/08/30 06:28:21;;;;;;;7.13;4.30;;;18.60;99.90;;;;;;5095476;28;20476;-82
2022/08/30 06:30:48;;;;;;;7.63;3.77;;;18.60;99.90;;;;;;5100467;28;20448;-82
2022/08/30 06:33:16;;;;;;;9.97;4.07;;;18.50;99.90;;;;;;5085710;28;20476;-83
2022/08/30 06:35:43;;;;;;;6.40;3.90;;;18.50;99.90;;;;;;5099071;28;20511;-82
2022/08/30 06:38:12;;;;;;;6.07;4.17;;;18.50;99.90;;;;;;5093098;28;20714;-82
2022/08/30 06:40:38;;;;;;;8.23;4.83;;;18.50;99.90;;;;;;5101485;28;20545;-84
2022/08/30 06:43:05;;;;;;;5.57;4.13;;;18.60;99.90;;;;;;5093566;28;20493;-82
2022/08/30 06:45:38;;;;;;;7.63;4.50;;;18.60;99.90;;;;;;5090418;28;20456;-83
2022/08/30 06:48:05;;;;;;;4.83;3.50;;;18.60;99.90;;;;;;5092428;28;20480;-83
2022/08/30 06:50:33;;;;;;;6.60;4.80;;;18.70;99.90;;;;;;5090341;28;20463;-83
2022/08/30 06:53:04;;;;;;;5.70;4.57;;;18.70;99.90;;;;;;5086140;28;20455;-84
2022/08/30 06:55:32;;;;;;;6.40;4.50;;;18.80;99.90;;;;;;5091977;28;20489;-84
2022/08/30 06:57:59;;;;;;;5.00;4.10;;;18.80;99.90;;;;;;5087434;28;20447;-80
2022/08/30 07:00:26;;;;;;;4.67;4.00;;;18.80;99.90;;;;;;5091106;28;20459;-82
2022/08/30 07:02:53;;;;;;;5.93;3.90;;;18.90;99.90;;;;;;5085534;28;20477;-80
2022/08/30 07:05:22;;;;;;;6.47;4.23;;;18.90;99.90;;;;;;5085291;28;20462;-84
2022/08/30 07:07:53;;;;;;;5.50;4.27;;;18.90;99.90;;;;;;5087333;28;20450;-82
2022/08/30 07:10:21;;;;;;;5.33;3.97;;;19.00;99.90;;;;;;5080517;28;20514;-81
2022/08/30 07:12:48;;;;;;;3.63;3.13;;;18.90;99.90;;;;;;5079201;28;20532;-84
2022/08/30 07:15:19;;;;;;;6.80;4.20;;;19.00;99.90;;;;;;5091881;28;20515;-83
2022/08/30 07:20:30;;;;;;;7.73;4.57;;;19.00;99.90;;;;;;5079274;28;20957;-84
2022/08/30 07:22:58;;;;;;;6.03;4.10;;;19.10;99.90;;;;;;5079178;28;20496;-83
2022/08/30 07:25:26;;;;;;;5.47;3.93;;;19.20;99.90;;;;;;5095076;28;20532;-83
2022/08/30 07:27:53;;;;;;;5.47;4.03;;;19.20;99.90;;;;;;5094292;28;20453;-84
2022/08/30 07:30:20;;;;;;;7.53;4.60;;;19.30;99.90;;;;;;5086871;28;20465;-84
2022/08/30 07:32:47;;;;;;;7.73;3.90;;;19.30;99.90;;;;;;5084678;28;20545;-84
2022/08/30 07:35:17;;;;;;;5.60;3.33;;;19.30;99.90;;;;;;5083324;28;20550;-83
2022/08/30 07:37:44;;;;;;;4.80;3.63;;;19.40;99.90;;;;;;5095386;28;20461;-83
2022/08/30 07:40:13;;;;;;;5.80;3.70;;;19.50;99.90;;;;;;5087136;28;20457;-82
2022/08/30 07:42:39;;;;;;;6.27;4.00;;;19.50;99.90;;;;;;5086599;28;20504;-83
2022/08/30 07:45:08;;;;;;;10.50;3.97;;;19.60;99.90;;;;;;5086917;28;20461;-85
2022/08/30 07:47:34;;;;;;;6.37;4.03;;;19.70;99.90;;;;;;5094183;28;20449;-84
2022/08/30 07:50:03;;;;;;;5.30;2.63;;;19.60;99.90;;;;;;5086193;28;20554;-84
2022/08/30 07:52:30;;;;;;;6.20;3.93;;;19.70;99.90;;;;;;5091412;28;20488;-85
2022/08/30 07:54:57;;;;;;;4.83;3.33;;;19.80;99.90;;;;;;5080860;28;20542;-84
2022/08/30 07:57:26;;;;;;;6.67;4.20;;;19.80;99.90;;;;;;5083723;28;21010;-84
2022/08/30 07:59:53;;;;;;;5.00;3.90;;;19.90;99.90;;;;;;5084584;28;20463;-82
2022/08/30 08:02:20;;;;;;;5.07;3.73;;;19.90;99.90;;;;;;5078551;28;20443;-85
2022/08/30 08:04:59;;;;;;;6.80;3.70;;;20.00;99.90;;;;;;5084396;28;20434;-84
2022/08/30 08:07:26;;;;;;;7.00;3.60;;;20.10;99.90;;;;;;5078066;28;20453;-84
2022/08/30 08:09:53;;;;;;;7.80;3.80;;;20.20;99.90;;;;;;5075599;28;20505;-85
2022/08/30 08:12:20;;;;;;;3.83;2.70;;;20.30;99.90;;;;;;5088398;28;20510;-83
2022/08/30 08:14:48;;;;;;;7.13;3.30;;;20.40;99.90;;;;;;5092353;28;20780;-85
2022/08/30 08:17:15;;;;;;;4.90;3.53;;;20.50;99.90;;;;;;5090976;28;20497;-84
2022/08/30 08:19:42;;;;;;;6.80;4.43;;;20.60;99.90;;;;;;5082759;28;20522;-84
2022/08/30 08:22:09;;;;;;;6.63;3.90;;;20.60;99.90;;;;;;5084149;28;20989;-84
2022/08/30 08:24:42;;;;;;;4.77;3.40;;;20.50;99.90;;;;;;5079200;28;20449;-86
2022/08/30 08:27:09;;;;;;;6.70;3.60;;;20.70;99.90;;;;;;5086051;28;20545;-83
2022/08/30 08:29:36;;;;;;;3.70;2.90;;;20.80;99.90;;;;;;5086299;28;20463;-84
2022/08/30 08:32:05;;;;;;;6.23;3.30;;;20.90;99.90;;;;;;5082037;28;20458;-84
2022/08/30 08:34:31;;;;;;;7.13;3.40;;;21.10;99.90;;;;;;5085942;28;20555;-85
2022/08/30 08:36:58;;;;;;;11.27;4.40;;;21.20;99.90;;;;;;5075415;28;20585;-83
2022/08/30 08:39:25;;;;;;;4.57;3.00;;;21.20;99.90;;;;;;5092429;28;20557;-85
2022/08/30 08:42:03;;;;;;;5.10;2.57;;;21.30;99.90;;;;;;5081977;28;20529;-84
2022/08/30 08:44:46;;;;;;;6.97;2.93;;;21.40;99.90;;;;;;5091975;28;20450;-85
2022/08/30 08:47:18;;;;;;;5.93;2.53;;;21.60;99.90;;;;;;5087683;28;20454;-84
2022/08/30 08:49:49;;;;;;;4.63;3.00;;;21.70;99.90;;;;;;5087297;28;20550;-84
2022/08/30 08:55:20;;;;;;;4.67;3.27;;;21.80;99.90;;;;;;5022946;28;20469;-84
2022/08/30 08:57:48;;;;;;;6.70;3.50;;;21.90;99.90;;;;;;5083556;28;20587;-85
2022/08/30 09:00:15;;;;;;;4.57;2.70;;;21.90;99.90;;;;;;5072727;28;20537;-85
2022/08/30 09:02:46;;;;;;;3.73;2.47;;;22.10;99.90;;;;;;5085527;28;21004;-85
2022/08/30 09:05:17;;;;;;;6.13;3.40;;;22.10;99.90;;;;;;5093742;28;20952;-84
2022/08/30 09:07:49;;;;;;;5.20;2.80;;;22.20;99.90;;;;;;5092592;28;20542;-86
2022/08/30 09:10:16;;;;;;;4.23;2.43;;;22.20;99.90;;;;;;5092845;28;20496;-84
2022/08/30 09:12:44;;;;;;;5.00;2.70;;;22.30;99.90;;;;;;5093159;28;20511;-84
2022/08/30 09:15:17;;;;;;;4.83;3.70;;;22.40;99.90;;;;;;5092502;28;20445;-84
2022/08/30 09:17:57;;;;;;;4.30;2.60;;;22.40;99.90;;;;;;5089666;28;20529;-84
2022/08/30 09:20:27;;;;;;;5.50;2.50;;;22.50;99.90;;;;;;5088775;28;20430;-85
2022/08/30 09:22:54;;;;;;;4.40;3.60;;;22.50;99.90;;;;;;5089916;28;20447;-85
2022/08/30 09:25:24;;;;;;;4.80;2.77;;;22.60;99.90;;;;;;5091220;28;20870;-85
2022/08/30 09:27:53;;;;;;;4.93;3.20;;;22.70;99.90;;;;;;5093171;28;20514;-85
2022/08/30 09:30:22;;;;;;;5.00;2.90;;;22.80;99.90;;;;;;5092003;28;20482;-86
2022/08/30 09:32:55;;;;;;;4.43;2.93;;;23.00;99.90;;;;;;5089658;28;20549;-86
2022/08/30 09:35:25;;;;;;;5.03;3.40;;;23.20;99.90;;;;;;5092151;28;21253;-85
2022/08/30 09:37:56;;;;;;;3.97;2.80;;;23.50;99.90;;;;;;5093122;28;20442;-85
2022/08/30 09:40:28;;;;;;;3.90;3.17;;;23.70;99.90;;;;;;5092048;28;20446;-85
2022/08/30 09:43:08;;;;;;;3.30;2.50;;;23.90;99.90;;;;;;5092404;28;20565;-86
2022/08/30 09:45:37;;;;;;;4.53;3.60;;;24.10;99.90;;;;;;5093771;28;20445;-86
2022/08/30 09:48:29;;;;;;;5.37;3.80;;;24.20;99.90;;;;;;5085841;28;20457;-85
2022/08/30 09:51:12;;;;;;;5.70;3.37;;;24.30;99.90;;;;;;5093274;28;20478;-86
2022/08/30 09:53:48;;;;;;;6.33;4.27;;;24.60;99.90;;;;;;5101393;28;20454;-85
2022/08/30 09:56:20;;;;;;;5.50;4.40;;;24.60;99.90;;;;;;5100072;28;20569;-84
2022/08/30 09:58:59;;;;;;;6.60;3.90;;;24.60;99.90;;;;;;5107659;28;20496;-86
2022/08/30 10:01:32;;;;;;;5.07;4.13;;;24.60;99.90;;;;;;5104778;28;20449;-84
2022/08/30 10:04:11;;;;;;;11.10;3.80;;;24.90;99.90;;;;;;5097768;28;20458;-86
2022/08/30 10:06:44;;;;;;;9.23;4.00;;;24.80;99.90;;;;;;5098418;28;20442;-85
2022/08/30 10:09:22;;;;;;;4.50;3.37;;;24.80;99.90;;;;;;5087139;28;20648;-86
2022/08/30 10:11:56;;;;;;;6.83;3.30;;;24.90;99.90;;;;;;5091096;28;20450;-84
2022/08/30 10:14:47;;;;;;;7.13;3.30;;;24.80;99.90;;;;;;5102084;28;20953;-85
2022/08/30 10:17:24;;;;;;;6.73;3.57;;;24.90;99.90;;;;;;5099166;28;20534;-85
2022/08/30 10:20:02;;;;;;;4.87;3.10;;;24.90;99.90;;;;;;5098639;28;20497;-85
2022/08/30 10:22:34;;;;;;;6.83;2.43;;;25.20;99.90;;;;;;5097209;28;20453;-85
2022/08/30 10:25:06;;;;;;;6.03;2.80;;;25.60;99.90;;;;;;5097497;28;20709;-87
2022/08/30 10:27:40;;;;;;;7.17;3.00;;;25.80;99.90;;;;;;5096583;28;20776;-85
2022/08/30 10:30:10;;;;;;;3.90;3.00;;;26.10;99.90;;;;;;5076155;28;20520;-86
2022/08/30 10:32:44;;;;;;;5.27;2.93;;;26.30;99.90;;;;;;5090129;28;20455;-86
2022/08/30 10:35:16;;;;;;;5.47;2.23;;;26.60;99.90;;;;;;5092238;28;20453;-85
2022/08/30 10:37:47;;;;;;;5.60;3.07;;;26.60;99.90;;;;;;5098611;28;20509;-87
2022/08/30 10:43:09;;;;;;;4.10;2.40;;;27.00;99.90;;;;;;5094602;28;20527;-86
2022/08/30 10:45:40;;;;;;;8.40;2.60;;;27.00;99.90;;;;;;5096498;28;20451;-85
2022/08/30 10:48:14;;;;;;;3.93;2.87;;;27.10;99.90;;;;;;5086622;28;20561;-86
2022/08/30 10:50:48;;;;;;;5.20;2.33;;;27.10;99.90;;;;;;5096382;28;20460;-86
2022/08/30 10:53:19;;;;;;;6.93;3.37;;;27.20;99.90;;;;;;5095717;28;20450;-86
2022/08/30 10:55:52;;;;;;;5.30;2.60;;;27.10;99.90;;;;;;5096628;28;20446;-87
2022/08/30 10:58:19;;;;;;;7.00;2.70;;;27.40;99.90;;;;;;5096371;28;20466;-86
2022/08/30 11:01:00;;;;;;;4.83;2.70;;;27.70;99.90;;;;;;5093203;28;20497;-85
2022/08/30 11:04:06;;;;;;;4.50;2.60;;;27.70;99.90;;;;;;5096086;28;20479;-86
2022/08/30 11:06:42;;;;;;;7.43;2.37;;;27.80;99.90;;;;;;5093992;28;20453;-87
2022/08/30 11:09:32;;;;;;;5.03;2.30;;;28.00;99.90;;;;;;5095699;28;20467;-86
2022/08/30 11:12:23;;;;;;;9.10;3.10;;;27.90;99.90;;;;;;5095816;28;20469;-86
2022/08/30 11:14:52;;;;;;;14.00;2.73;;;27.70;99.90;;;;;;5095221;28;20526;-86
2022/08/30 11:17:29;;;;;;;4.73;2.53;;;27.80;99.90;;;;;;5093635;28;20557;-87
2022/08/30 11:19:58;;;;;;;7.03;3.17;;;27.60;99.90;;;;;;5096835;28;20511;-86
2022/08/30 11:22:30;;;;;;;5.43;2.50;;;27.60;99.90;;;;;;5086962;28;20466;-85
2022/08/30 11:25:10;;;;;;;4.53;2.10;;;27.70;99.90;;;;;;5091922;28;20569;-86
2022/08/30 11:27:44;;;;;;;3.90;1.90;;;27.90;99.90;;;;;;5095870;28;20517;-85
2022/08/30 11:30:44;;;;;;;5.00;2.80;;;28.10;99.90;;;;;;5095421;28;20500;-87
2022/08/30 11:33:41;;;;;;;7.10;2.93;;;28.10;99.90;;;;;;5085380;28;20541;-87
2022/08/30 11:36:09;;;;;;;6.20;3.10;;;28.00;99.90;;;;;;5091535;28;20543;-86
2022/08/30 11:39:04;;;;;;;15.43;3.87;;;28.10;99.90;;;;;;5077675;28;21043;-86
2022/08/30 11:41:34;;;;;;;5.83;2.30;;;27.80;99.90;;;;;;5066771;28;20537;-87
2022/08/30 11:44:30;;;;;;;3.07;2.40;;;27.70;99.90;;;;;;5083527;28;20430;-86
2022/08/30 11:46:58;;;;;;;5.07;2.90;;;27.40;99.90;;;;;;5095902;28;20476;-86
2022/08/30 11:49:45;;;;;;;6.47;2.50;;;27.20;99.90;;;;;;5095581;28;20466;-85
2022/08/30 11:52:22;;;;;;;8.20;3.43;;;27.10;99.90;;;;;;5095858;28;20939;-86
2022/08/30 11:55:11;;;;;;;4.33;2.80;;;27.00;99.90;;;;;;5096253;28;20733;-85
2022/08/30 11:57:48;;;;;;;4.23;2.67;;;27.00;99.90;;;;;;5086237;28;20512;-85
2022/08/30 12:00:28;;;;;;;4.03;2.23;;;27.10;99.90;;;;;;5096574;28;21048;-86
2022/08/30 12:02:58;;;;;;;8.20;2.80;;;26.90;99.90;;;;;;5096471;28;20446;-85
2022/08/30 12:05:51;;;;;;;5.00;2.23;;;27.10;99.90;;;;;;5095548;28;20450;-86
2022/08/30 12:08:44;;;;;;;6.57;2.50;;;27.30;99.90;;;;;;5093560;28;20594;-84
2022/08/30 12:11:59;;;;;;;8.27;2.27;;;27.30;99.90;;;;;;5086822;28;20531;-83
2022/08/30 12:14:37;;;;;;;3.57;2.27;;;27.10;99.90;;;;;;5079845;28;20442;-86
2022/08/30 12:20:00;;;;;;;4.00;2.07;;;27.10;99.90;;;;;;5080774;28;20461;-86
2022/08/30 12:22:29;;;;;;;6.10;2.23;;;27.90;99.90;;;;;;5095529;28;20473;-86
2022/08/30 12:24:57;;;;;;;6.73;2.40;;;28.50;99.90;;;;;;5093922;28;20457;-86
2022/08/30 12:27:26;;;;;;;6.60;2.83;;;28.70;99.90;;;;;;5095070;28;20495;-86
2022/08/30 12:29:58;;;;;;;4.43;2.40;;;28.90;99.90;;;;;;5094314;28;20832;-85
2022/08/30 12:32:26;;;;;;;3.90;2.67;;;28.90;99.90;;;;;;5094038;28;20457;-85
2022/08/30 12:34:55;;;;;;;3.30;2.30;;;28.80;99.90;;;;;;5093580;28;20461;-86
2022/08/30 12:37:23;;;;;;;6.60;2.30;;;28.70;99.90;;;;;;5093715;28;21076;-85
2022/08/30 12:40:01;;;;;;;4.93;3.03;;;28.60;99.90;;;;;;5095474;28;20476;-86
2022/08/30 12:42:30;;;;;;;5.30;2.30;;;28.30;99.90;;;;;;5095583;28;20535;-85
2022/08/30 12:45:04;;;;;;;4.50;2.53;;;28.10;99.90;;;;;;5095238;28;20935;-86
2022/08/30 12:47:38;;;;;;;6.33;2.40;;;27.90;99.90;;;;;;5097292;28;20509;-87
2022/08/30 12:50:08;;;;;;;7.23;2.93;;;27.90;99.90;;;;;;5100346;28;20476;-86
2022/08/30 12:52:38;;;;;;;4.50;2.20;;;27.90;99.90;;;;;;5106496;28;20942;-86
2022/08/30 12:55:12;;;;;;;3.77;2.40;;;27.90;99.90;;;;;;5092961;28;20450;-85
2022/08/30 12:57:42;;;;;;;10.53;2.37;;;28.00;99.90;;;;;;5093957;28;20484;-87
2022/08/30 13:00:24;;;;;;;4.23;2.70;;;28.20;99.90;;;;;;5092925;28;20493;-85
2022/08/30 13:02:53;;;;;;;6.10;2.27;;;28.20;99.90;;;;;;5092358;28;20456;-85
2022/08/30 13:05:35;;;;;;;12.53;2.83;;;28.20;99.90;;;;;;5092900;28;20501;-87
2022/08/30 13:08:11;;;;;;;3.67;2.00;;;28.30;99.90;;;;;;5091115;28;20970;-85
2022/08/30 13:10:50;;;;;;;3.67;2.20;;;28.30;99.90;;;;;;5086365;28;20468;-85
2022/08/30 13:13:29;;;;;;;6.37;2.50;;;28.40;99.90;;;;;;5083658;28;20465;-85
2022/08/30 13:16:06;;;;;;;7.40;2.70;;;28.70;99.90;;;;;;5084537;28;20525;-85